createdAt,value
2019-01-10T00:00:25.398Z,3.95
2019-01-10T00:02:54.590Z,13.68
2019-01-10T00:05:23.888Z,7.00
2019-01-10T00:07:53.042Z,11.73
2019-01-10T00:10:22.552Z,13.22
2019-01-10T00:12:51.742Z,8.00
2019-01-10T00:15:20.995Z,7.10
2019-01-10T00:17:50.342Z,7.55
2019-01-10T00:20:19.675Z,8.48
2019-01-10T00:22:48.902Z,8.48
2019-01-10T00:25:18.081Z,10.72
2019-01-10T00:27:47.276Z,8.28
2019-01-10T00:30:18.711Z,7.65
2019-01-10T00:32:48.055Z,12.65
2019-01-10T00:35:17.259Z,8.30
2019-01-10T00:37:46.435Z,13.32
2019-01-10T00:40:16.783Z,6.97
2019-01-10T00:42:49.693Z,9.35
2019-01-10T00:45:17.846Z,8.28
2019-01-10T00:47:47.380Z,12.68
2019-01-10T00:50:19.202Z,10.00
2019-01-10T00:52:48.378Z,7.00
2019-01-10T00:55:17.561Z,9.80
2019-01-10T00:57:46.888Z,12.00
2019-01-10T01:00:19.304Z,9.88
2019-01-10T01:02:48.486Z,3.42
2019-01-10T01:05:18.887Z,8.60
2019-01-10T01:07:48.148Z,9.93
2019-01-10T01:10:22.451Z,10.35
2019-01-10T01:12:58.271Z,7.75
2019-01-10T01:15:23.206Z,4.75
2019-01-10T01:17:52.383Z,7.53
2019-01-10T01:20:23.731Z,6.87
2019-01-10T01:22:53.056Z,10.50
2019-01-10T01:25:22.310Z,14.35
2019-01-10T01:27:51.615Z,4.62
2019-01-10T01:30:23.046Z,8.08
2019-01-10T01:32:52.587Z,13.43
2019-01-10T01:35:21.859Z,17.23
2019-01-10T01:37:51.147Z,11.43
2019-01-10T01:40:21.287Z,9.83
2019-01-10T01:42:50.644Z,9.75
2019-01-10T01:45:20.628Z,7.33
2019-01-10T01:47:49.890Z,7.85
2019-01-10T01:50:22.302Z,11.25
2019-01-10T01:52:53.565Z,6.75
2019-01-10T01:55:22.568Z,12.75
2019-01-10T01:57:51.833Z,9.88
2019-01-10T02:00:23.006Z,9.93
2019-01-10T02:02:52.183Z,11.78
2019-01-10T02:05:21.445Z,11.00
2019-01-10T02:07:50.932Z,13.38
2019-01-10T02:10:22.866Z,8.80
2019-01-10T02:12:52.190Z,6.37
2019-01-10T02:15:21.463Z,8.73
2019-01-10T02:17:50.749Z,10.90
2019-01-10T02:20:19.908Z,7.60
2019-01-10T02:22:49.241Z,5.45
2019-01-10T02:25:18.603Z,6.87
2019-01-10T02:27:47.857Z,10.18
2019-01-10T02:30:20.113Z,8.93
2019-01-10T02:32:49.430Z,11.73
2019-01-10T02:35:19.971Z,6.20
2019-01-10T02:37:49.563Z,8.28
2019-01-10T02:40:18.875Z,5.92
2019-01-10T02:42:48.127Z,8.93
2019-01-10T02:45:17.791Z,6.58
2019-01-10T02:47:46.970Z,8.43
2019-01-10T02:50:18.799Z,6.70
2019-01-10T02:52:48.018Z,9.30
2019-01-10T02:55:17.536Z,9.73
2019-01-10T02:57:46.724Z,6.37
2019-01-10T03:00:21.290Z,8.33
2019-01-10T03:02:50.841Z,7.75
2019-01-10T03:05:20.359Z,7.47
2019-01-10T03:07:50.514Z,8.08
2019-01-10T03:10:22.496Z,8.13
2019-01-10T03:12:51.687Z,6.70
2019-01-10T03:15:21.000Z,7.50
2019-01-10T03:17:50.172Z,13.95
2019-01-10T03:20:21.472Z,5.08
2019-01-10T03:22:50.661Z,8.08
2019-01-10T03:25:19.837Z,12.03
2019-01-10T03:27:49.030Z,4.20
2019-01-10T03:30:19.779Z,5.17
2019-01-10T03:32:49.038Z,9.25
2019-01-10T03:35:18.352Z,14.45
2019-01-10T03:37:47.578Z,9.03
2019-01-10T03:40:19.006Z,8.73
2019-01-10T03:42:48.444Z,3.62
2019-01-10T03:45:19.386Z,5.25
2019-01-10T03:47:48.715Z,6.10
2019-01-10T03:50:18.161Z,8.85
2019-01-10T03:52:47.321Z,7.27
2019-01-10T03:55:16.493Z,6.72
2019-01-10T03:57:45.725Z,8.77
2019-01-10T04:00:18.022Z,6.37
2019-01-10T04:02:47.332Z,9.55
2019-01-10T04:05:16.644Z,8.50
2019-01-10T04:07:45.910Z,8.47
2019-01-10T04:10:16.733Z,9.00
2019-01-10T04:12:45.987Z,7.07
2019-01-10T04:15:16.866Z,11.12
2019-01-10T04:17:46.037Z,5.20
2019-01-10T04:20:16.937Z,5.10
2019-01-10T04:22:46.220Z,7.73
2019-01-10T04:25:15.862Z,7.08
2019-01-10T04:27:45.045Z,6.83
2019-01-10T04:30:16.720Z,8.43
2019-01-10T04:32:49.547Z,6.30
2019-01-10T04:35:18.730Z,7.00
2019-01-10T04:37:47.987Z,7.00
2019-01-10T04:40:18.710Z,9.05
2019-01-10T04:42:48.024Z,11.85
2019-01-10T04:45:17.467Z,6.33
2019-01-10T04:47:46.719Z,6.55
2019-01-10T04:50:16.226Z,9.88
2019-01-10T04:52:45.463Z,10.50
2019-01-10T04:55:14.963Z,5.33
2019-01-10T04:57:44.162Z,13.40
2019-01-10T05:00:19.445Z,4.87
2019-01-10T05:02:48.528Z,3.57
2019-01-10T05:05:17.739Z,6.33
2019-01-10T05:07:47.007Z,8.53
2019-01-10T05:10:16.198Z,5.67
2019-01-10T05:12:45.347Z,7.03
2019-01-10T05:15:16.091Z,6.03
2019-01-10T05:17:45.359Z,7.87
2019-01-10T05:20:18.842Z,9.30
2019-01-10T05:22:48.618Z,4.28
2019-01-10T05:25:17.864Z,6.92
2019-01-10T05:27:47.053Z,12.05
2019-01-10T05:30:19.430Z,6.50
2019-01-10T05:32:48.798Z,4.70
2019-01-10T05:35:18.086Z,8.30
2019-01-10T05:37:47.400Z,5.65
2019-01-10T05:40:35.926Z,7.80
2019-01-10T05:43:05.109Z,8.65
2019-01-10T05:45:34.295Z,9.35
2019-01-10T05:48:03.493Z,8.27
2019-01-10T05:50:32.742Z,8.30
2019-01-10T05:53:01.932Z,7.30
2019-01-10T05:55:31.117Z,7.78
2019-01-10T05:58:00.317Z,7.25
2019-01-10T06:00:29.648Z,9.10
2019-01-10T06:02:58.897Z,11.83
2019-01-10T06:05:28.095Z,11.20
2019-01-10T06:07:57.290Z,7.65
2019-01-10T06:10:27.335Z,8.95
2019-01-10T06:12:56.555Z,8.47
2019-01-10T06:15:25.739Z,3.70
2019-01-10T06:17:54.955Z,8.10
2019-01-10T06:20:25.178Z,9.67
2019-01-10T06:22:54.441Z,9.43
2019-01-10T06:25:23.669Z,5.42
2019-01-10T06:27:53.016Z,9.13
2019-01-10T06:30:23.295Z,12.27
2019-01-10T06:32:52.650Z,7.77
2019-01-10T06:35:21.854Z,6.70
2019-01-10T06:37:51.106Z,4.05
2019-01-10T06:40:21.211Z,6.22
2019-01-10T06:42:50.434Z,4.45
2019-01-10T06:45:19.661Z,7.80
2019-01-10T06:47:48.842Z,7.70
2019-01-10T06:50:18.423Z,4.00
2019-01-10T06:52:47.625Z,5.72
2019-01-10T06:55:16.794Z,6.10
2019-01-10T06:57:46.000Z,11.23
2019-01-10T07:00:18.205Z,6.80
2019-01-10T07:02:47.831Z,5.53
2019-01-10T07:05:18.024Z,6.58
2019-01-10T07:07:55.893Z,6.53
2019-01-10T07:10:23.959Z,5.95
2019-01-10T07:12:53.209Z,6.17
2019-01-10T07:15:22.407Z,11.50
2019-01-10T07:17:51.689Z,9.60
2019-01-10T07:20:20.909Z,7.80
2019-01-10T07:22:51.961Z,7.50
2019-01-10T07:25:21.440Z,10.43
2019-01-10T07:27:50.731Z,9.33
2019-01-10T07:30:25.083Z,7.93
2019-01-10T07:32:54.636Z,6.10
2019-01-10T07:35:25.689Z,5.63
2019-01-10T07:37:55.284Z,8.53
2019-01-10T07:40:24.626Z,8.13
2019-01-10T07:42:53.821Z,4.20
2019-01-10T07:45:24.183Z,9.97
2019-01-10T07:47:53.373Z,14.70
2019-01-10T07:50:29.742Z,9.70
2019-01-10T07:52:58.964Z,8.57
2019-01-10T07:55:28.147Z,11.90
2019-01-10T07:57:57.351Z,10.23
2019-01-10T08:00:26.578Z,7.33
2019-01-10T08:02:55.807Z,13.07
2019-01-10T08:05:25.019Z,12.00
2019-01-10T08:07:54.275Z,13.90
2019-01-10T08:10:23.511Z,7.73
2019-01-10T08:12:52.699Z,11.07
2019-01-10T08:15:22.548Z,6.63
2019-01-10T08:17:51.788Z,8.50
2019-01-10T08:20:20.972Z,14.90
2019-01-10T08:22:50.163Z,7.93
2019-01-10T08:25:19.359Z,8.17
2019-01-10T08:27:48.675Z,10.00
2019-01-10T08:30:20.638Z,6.43
2019-01-10T08:32:49.892Z,10.10
2019-01-10T08:35:21.517Z,9.97
2019-01-10T08:37:50.680Z,6.27
2019-01-10T08:40:19.897Z,4.87
2019-01-10T08:42:49.114Z,10.30
2019-01-10T08:45:21.929Z,9.70
2019-01-10T08:47:49.526Z,8.90
2019-01-10T08:50:24.087Z,10.93
2019-01-10T08:52:53.285Z,9.73
2019-01-10T08:55:22.619Z,4.20
2019-01-10T08:57:51.795Z,6.73
2019-01-10T09:00:21.984Z,14.77
2019-01-10T09:02:51.284Z,10.93
2019-01-10T09:05:20.566Z,12.63
2019-01-10T09:07:49.735Z,11.07
2019-01-10T09:10:23.899Z,8.43
2019-01-10T09:12:53.158Z,8.57
2019-01-10T09:15:25.234Z,6.73
2019-01-10T09:17:53.298Z,11.27
2019-01-10T09:20:22.486Z,9.67
2019-01-10T09:22:51.688Z,15.17
2019-01-10T09:25:20.932Z,4.80
2019-01-10T09:27:50.188Z,13.20
2019-01-10T09:30:20.632Z,8.87
2019-01-10T09:32:49.926Z,12.47
2019-01-10T09:35:19.247Z,7.57
2019-01-10T09:37:48.368Z,10.83
2019-01-10T09:40:19.460Z,5.90
2019-01-10T09:42:48.998Z,7.60
2019-01-10T09:45:21.062Z,7.83
2019-01-10T09:47:50.481Z,4.43
2019-01-10T09:50:21.588Z,10.77
2019-01-10T09:52:51.638Z,6.07
2019-01-10T09:55:20.954Z,6.70
2019-01-10T09:57:50.128Z,9.47
2019-01-10T10:00:22.448Z,8.07
2019-01-10T10:02:51.660Z,9.30
2019-01-10T10:05:20.911Z,8.50
2019-01-10T10:07:50.378Z,15.07
2019-01-10T10:10:20.308Z,4.97
2019-01-10T10:12:49.477Z,13.80
2019-01-10T10:15:19.504Z,11.67
2019-01-10T10:17:48.685Z,5.80
2019-01-10T10:20:20.639Z,11.73
2019-01-10T10:23:07.527Z,11.93
2019-01-10T10:25:54.866Z,7.67
2019-01-10T10:28:24.076Z,4.43
2019-01-10T10:30:55.145Z,11.10
2019-01-10T10:33:24.164Z,11.95
2019-01-10T10:35:53.380Z,9.13
2019-01-10T10:38:22.615Z,10.33
2019-01-10T10:40:51.810Z,6.20
2019-01-10T10:43:21.014Z,13.20
2019-01-10T10:46:01.184Z,7.13
2019-01-10T10:48:23.319Z,3.70
2019-01-10T10:50:52.543Z,9.43
2019-01-10T10:53:21.790Z,4.43
2019-01-10T10:55:51.026Z,9.57
2019-01-10T10:58:20.212Z,7.23
2019-01-10T11:00:49.459Z,4.97
2019-01-10T11:03:18.559Z,14.50
2019-01-10T11:05:47.786Z,9.57
2019-01-10T11:08:16.991Z,6.50
2019-01-10T11:10:46.180Z,5.90
2019-01-10T11:13:15.405Z,7.60
2019-01-10T11:15:44.560Z,12.70
2019-01-10T11:18:13.764Z,9.27
2019-01-10T11:20:42.970Z,7.77
2019-01-10T11:23:12.169Z,7.57
2019-01-10T11:25:41.375Z,9.33
2019-01-10T11:28:10.607Z,10.60
2019-01-10T11:30:40.790Z,9.20
2019-01-10T11:33:09.999Z,6.97
2019-01-10T11:35:39.160Z,7.03
2019-01-10T11:38:08.350Z,8.87
2019-01-10T11:40:37.601Z,10.37
2019-01-10T11:43:06.836Z,12.20
2019-01-10T11:45:36.033Z,11.80
2019-01-10T11:48:05.405Z,9.23
2019-01-10T11:50:34.686Z,7.10
2019-01-10T11:53:03.922Z,9.07
2019-01-10T11:55:33.116Z,15.87
2019-01-10T11:58:02.302Z,11.47
2019-01-10T12:00:32.618Z,5.83
2019-01-10T12:03:24.927Z,9.70
2019-01-10T12:06:09.006Z,9.77
2019-01-10T12:08:38.203Z,15.03
2019-01-10T12:11:07.368Z,5.33
2019-01-10T12:13:36.550Z,10.97
2019-01-10T12:16:05.815Z,11.80
2019-01-10T12:18:34.995Z,5.80
2019-01-10T12:21:04.258Z,11.70
2019-01-10T12:23:33.446Z,6.43
2019-01-10T12:26:02.615Z,8.80
2019-01-10T12:28:31.797Z,9.37
2019-01-10T12:31:01.014Z,10.23
2019-01-10T12:33:30.185Z,9.40
2019-01-10T12:35:59.729Z,10.67
2019-01-10T12:38:28.896Z,11.13
2019-01-10T12:40:58.071Z,10.93
2019-01-10T12:43:27.245Z,15.60
2019-01-10T12:45:56.424Z,8.13
2019-01-10T12:48:25.613Z,8.17
2019-01-10T12:50:54.781Z,8.87
2019-01-10T12:53:23.967Z,7.70
2019-01-10T12:55:53.168Z,12.43
2019-01-10T12:58:23.201Z,5.13
2019-01-10T13:00:52.436Z,15.33
2019-01-10T13:03:21.601Z,10.07
2019-01-10T13:05:50.788Z,14.33
2019-01-10T13:08:20.002Z,14.33
2019-01-10T13:10:49.248Z,8.97
2019-01-10T13:13:18.419Z,10.10
2019-01-10T13:15:48.613Z,9.97
2019-01-10T13:18:17.804Z,11.73
2019-01-10T13:20:46.989Z,9.30
2019-01-10T13:23:16.183Z,5.30
2019-01-10T13:25:45.346Z,5.77
2019-01-10T13:28:14.520Z,8.63
2019-01-10T13:30:43.712Z,13.10
2019-01-10T13:33:12.891Z,10.63
2019-01-10T13:35:42.139Z,8.00
2019-01-10T13:38:11.335Z,10.70
2019-01-10T13:40:40.539Z,8.17
2019-01-10T13:43:09.673Z,10.37
2019-01-10T13:45:45.999Z,8.70
2019-01-10T13:48:09.802Z,8.57
2019-01-10T13:50:38.988Z,5.40
2019-01-10T13:53:08.624Z,4.47
2019-01-10T13:55:37.886Z,2.47
2019-01-10T13:58:07.053Z,2.40
2019-01-10T14:00:36.375Z,5.33
2019-01-10T14:03:05.535Z,4.73
2019-01-10T14:05:36.214Z,9.20
2019-01-10T14:08:05.664Z,1.97
2019-01-10T14:10:34.970Z,3.33
2019-01-10T14:13:04.380Z,3.57
2019-01-10T14:15:33.835Z,4.83
2019-01-10T14:18:03.354Z,3.47
2019-01-10T14:20:32.515Z,6.70
2019-01-10T14:23:01.710Z,5.03
2019-01-10T14:25:30.959Z,2.57
2019-01-10T14:28:00.292Z,4.33
2019-01-10T14:30:32.615Z,1.10
2019-01-10T14:33:01.909Z,1.70
2019-01-10T14:35:31.371Z,2.60
2019-01-10T14:38:00.579Z,2.47
2019-01-10T14:40:29.835Z,1.60
2019-01-10T14:42:59.015Z,0.97
2019-01-10T14:45:28.243Z,2.23
2019-01-10T14:48:01.772Z,1.77
2019-01-10T14:50:28.668Z,2.57
2019-01-10T14:52:57.855Z,5.07
2019-01-10T14:55:27.017Z,3.17
2019-01-10T14:57:56.174Z,1.97
2019-01-10T15:00:25.531Z,3.13
2019-01-10T15:02:54.670Z,1.87
2019-01-10T15:05:23.849Z,4.23
2019-01-10T15:07:53.047Z,1.43
2019-01-10T15:10:22.465Z,1.27
2019-01-10T15:12:51.689Z,1.57
2019-01-10T15:15:22.357Z,2.27
2019-01-10T15:17:51.677Z,2.70
2019-01-10T15:20:23.856Z,1.80
2019-01-10T15:22:53.055Z,2.83
2019-01-10T15:25:22.285Z,1.70
2019-01-10T15:27:51.469Z,1.97
2019-01-10T15:30:23.337Z,5.10
2019-01-10T15:32:52.581Z,2.37
2019-01-10T15:35:21.824Z,1.10
2019-01-10T15:37:50.905Z,4.83
2019-01-10T15:40:25.585Z,3.13
2019-01-10T15:42:55.641Z,2.33
2019-01-10T15:45:25.461Z,4.37
2019-01-10T15:47:54.985Z,1.83
2019-01-10T15:50:24.173Z,1.30
2019-01-10T15:52:53.437Z,4.73
2019-01-10T15:55:22.668Z,1.30
2019-01-10T15:57:51.819Z,2.40
2019-01-10T16:00:24.947Z,1.03
2019-01-10T16:02:54.400Z,1.90
2019-01-10T16:05:23.579Z,2.87
2019-01-10T16:07:52.768Z,4.57
2019-01-10T16:10:22.021Z,3.40
2019-01-10T16:12:53.266Z,2.50
2019-01-10T16:15:24.085Z,1.70
2019-01-10T16:17:53.345Z,1.40
2019-01-10T16:20:22.586Z,6.40
2019-01-10T16:23:06.821Z,4.90
2019-01-10T16:25:35.993Z,6.17
2019-01-10T16:28:05.245Z,5.33
2019-01-10T16:30:34.458Z,5.40
2019-01-10T16:33:03.623Z,2.57
2019-01-10T16:35:32.818Z,6.53
2019-01-10T16:38:02.080Z,2.33
2019-01-10T16:40:31.250Z,5.70
2019-01-10T16:43:02.951Z,4.70
2019-01-10T16:45:32.583Z,5.90
2019-01-10T16:48:01.893Z,3.87
2019-01-10T16:50:31.058Z,4.17
2019-01-10T16:53:00.330Z,4.80
2019-01-10T16:55:29.574Z,4.00
2019-01-10T16:57:58.737Z,3.93
2019-01-10T17:00:30.385Z,5.10
2019-01-10T17:02:59.683Z,6.97
2019-01-10T17:05:28.926Z,5.90
2019-01-10T17:07:58.297Z,3.87
2019-01-10T17:10:27.459Z,4.33
2019-01-10T17:12:56.634Z,6.40
2019-01-10T17:15:25.914Z,6.00
2019-01-10T17:17:55.091Z,2.77
2019-01-10T17:20:26.165Z,3.63
2019-01-10T17:22:55.337Z,4.30
2019-01-10T17:25:24.505Z,8.10
2019-01-10T17:27:53.697Z,9.50
2019-01-10T17:30:27.270Z,3.57
2019-01-10T17:32:56.528Z,8.30
2019-01-10T17:35:27.949Z,5.60
2019-01-10T17:37:57.670Z,7.90
2019-01-10T17:40:26.907Z,5.63
2019-01-10T17:42:59.609Z,4.40
2019-01-10T17:45:31.481Z,8.13
2019-01-10T17:48:00.655Z,3.57
2019-01-10T17:50:30.054Z,7.83
2019-01-10T17:52:59.239Z,2.77
2019-01-10T17:55:28.417Z,4.43
2019-01-10T17:57:57.609Z,3.63
2019-01-10T18:00:29.084Z,3.70
2019-01-10T18:02:58.388Z,4.00
2019-01-10T18:05:27.742Z,3.80
2019-01-10T18:07:57.024Z,4.47
2019-01-10T18:10:26.296Z,5.58
2019-01-10T18:12:55.539Z,6.93
2019-01-10T18:15:25.499Z,4.17
2019-01-10T18:17:54.682Z,5.87
2019-01-10T18:20:32.547Z,2.97
2019-01-10T18:23:01.725Z,7.73
2019-01-10T18:25:30.955Z,3.80
2019-01-10T18:28:00.159Z,5.30
2019-01-10T18:30:29.355Z,5.57
2019-01-10T18:32:58.554Z,5.43
2019-01-10T18:35:27.819Z,4.97
2019-01-10T18:37:57.026Z,4.60
2019-01-10T18:40:26.245Z,5.17
2019-01-10T18:42:57.109Z,4.70
2019-01-10T18:45:28.986Z,4.33
2019-01-10T18:47:58.257Z,6.93
2019-01-10T18:50:27.583Z,4.50
2019-01-10T18:52:56.830Z,4.57
2019-01-10T18:55:26.105Z,9.58
2019-01-10T18:57:55.278Z,6.08
2019-01-10T19:00:28.806Z,6.53
2019-01-10T19:02:58.636Z,6.67
2019-01-10T19:05:28.195Z,3.47
2019-01-10T19:07:57.368Z,4.83
2019-01-10T19:10:26.726Z,6.00
2019-01-10T19:12:55.825Z,6.30
2019-01-10T19:15:25.025Z,6.87
2019-01-10T19:17:54.196Z,6.33
2019-01-10T19:20:26.085Z,3.47
2019-01-10T19:22:56.541Z,6.37
2019-01-10T19:25:25.718Z,8.27
2019-01-10T19:27:54.924Z,7.97
2019-01-10T19:30:30.698Z,7.50
2019-01-10T19:33:01.346Z,9.47
2019-01-10T19:35:30.714Z,13.63
2019-01-10T19:37:59.880Z,7.93
2019-01-10T19:40:29.411Z,12.60
2019-01-10T19:42:58.615Z,15.23
2019-01-10T19:45:27.806Z,11.15
2019-01-10T19:47:56.982Z,13.33
2019-01-10T19:50:26.618Z,12.17
2019-01-10T19:52:56.783Z,14.07
2019-01-10T19:55:26.094Z,12.20
2019-01-10T19:57:56.269Z,11.90
2019-01-10T20:00:31.078Z,12.37
2019-01-10T20:03:00.348Z,13.68
2019-01-10T20:05:29.562Z,11.43
2019-01-10T20:07:58.762Z,14.43
2019-01-10T20:10:33.711Z,17.07
2019-01-10T20:13:03.090Z,17.52
2019-01-10T20:15:32.296Z,19.25
2019-01-10T20:18:01.995Z,15.07
2019-01-10T20:20:33.884Z,15.67
2019-01-10T20:23:04.866Z,14.80
2019-01-10T20:25:34.823Z,17.80
2019-01-10T20:28:04.772Z,18.82
2019-01-10T20:30:34.007Z,22.03
2019-01-10T20:33:03.208Z,24.07
2019-01-10T20:35:32.451Z,21.05
2019-01-10T20:38:01.891Z,23.43
2019-01-10T20:40:31.091Z,23.20
2019-01-10T20:43:00.285Z,26.12
2019-01-10T20:45:29.533Z,21.53
2019-01-10T20:47:58.721Z,28.00
2019-01-10T20:50:27.921Z,26.37
2019-01-10T20:52:58.641Z,27.83
2019-01-10T20:55:27.909Z,27.67
2019-01-10T20:57:57.088Z,26.40
2019-01-10T21:00:27.463Z,25.07
2019-01-10T21:02:56.637Z,24.70
2019-01-10T21:05:27.110Z,27.00
2019-01-10T21:07:56.417Z,26.37
2019-01-10T21:10:25.855Z,28.17
2019-01-10T21:12:55.121Z,26.93
2019-01-10T21:15:27.520Z,31.00
2019-01-10T21:17:56.795Z,31.17
2019-01-10T21:20:26.048Z,30.00
2019-01-10T21:22:56.865Z,33.78
2019-01-10T21:25:26.142Z,34.05
2019-01-10T21:27:55.359Z,33.50
2019-01-10T21:30:25.032Z,36.95
2019-01-10T21:32:54.250Z,37.95
2019-01-10T21:35:23.528Z,32.20
2019-01-10T21:37:52.803Z,35.75
2019-01-10T21:40:23.948Z,36.28
2019-01-10T21:42:53.739Z,38.73
2019-01-10T21:45:23.824Z,38.70
2019-01-10T21:47:53.176Z,34.67
2019-01-10T21:50:24.658Z,41.20
2019-01-10T21:52:54.103Z,38.55
2019-01-10T21:55:23.379Z,38.75
2019-01-10T21:57:52.762Z,41.88
2019-01-10T22:00:27.310Z,40.85
2019-01-10T22:02:56.968Z,41.42
2019-01-10T22:05:26.345Z,41.45
2019-01-10T22:07:55.528Z,42.03
2019-01-10T22:10:24.728Z,42.83
2019-01-10T22:12:53.970Z,40.38
2019-01-10T22:15:23.236Z,35.00
2019-01-10T22:17:52.449Z,36.10
2019-01-10T22:20:22.526Z,32.75
2019-01-10T22:22:51.791Z,31.77
2019-01-10T22:25:21.382Z,27.87
2019-01-10T22:27:50.588Z,30.90
2019-01-10T22:30:21.885Z,33.47
2019-01-10T22:32:51.247Z,29.15
2019-01-10T22:35:22.222Z,31.43
2019-01-10T22:37:51.825Z,34.20
2019-01-10T22:40:22.381Z,29.35
2019-01-10T22:42:51.716Z,29.03
2019-01-10T22:45:21.015Z,26.57
2019-01-10T22:47:50.190Z,27.93
2019-01-10T22:50:21.745Z,29.97
2019-01-10T22:52:50.960Z,30.10
2019-01-10T22:55:20.571Z,26.30
2019-01-10T22:57:49.753Z,29.93
2019-01-10T23:00:52.167Z,25.23
2019-01-10T23:03:21.443Z,26.50
2019-01-10T23:05:50.625Z,22.73
2019-01-10T23:08:19.854Z,22.73
2019-01-10T23:10:49.200Z,27.43
2019-01-10T23:13:18.448Z,23.97
2019-01-10T23:15:47.791Z,22.03
2019-01-10T23:18:17.154Z,23.30
2019-01-10T23:20:54.421Z,25.27
2019-01-10T23:23:23.677Z,21.53
2019-01-10T23:25:54.028Z,27.23
2019-01-10T23:28:23.504Z,24.67
2019-01-10T23:30:58.203Z,23.53
2019-01-10T23:33:28.096Z,23.70
2019-01-10T23:35:59.419Z,25.73
2019-01-10T23:38:28.959Z,23.17
2019-01-10T23:40:58.669Z,25.27
2019-01-10T23:43:28.003Z,20.03
2019-01-10T23:45:57.298Z,21.83
2019-01-10T23:48:26.636Z,20.27
2019-01-10T23:50:55.913Z,19.80
2019-01-10T23:53:25.135Z,22.47
2019-01-10T23:55:54.318Z,18.03
2019-01-10T23:58:23.675Z,21.13
